Kukimaru No.13 — JD2457 — position and weather

sailwx.info

Track history (hours):
 
Tides and Currents Weather Stations Pressure Air Temp Water Temp Dewpoint Dewpoint Depression Visibility Wind Speed Wind Dir Waves Ship Positions

Kukimaru No.13

Last reported at 2017-Oct-12 12:19 UTC. Time now 2017-Oct-18 15:10 UTC.
Position N 35°07' E 139°40'.

Length 75 m.

Type: Cargo ship. MMSI: 431000251.

Date/timePositionNaut miles runAvg speedWind from/ knotsBaromVisibWave heightAir tempDewpointWater temp
2017-Oct-12 12:19N 35°07' E 139°40'3 9.8
2017-Oct-12 11:59N 35°09' E 139°43'510.3
2017-Oct-12 11:30N 35°13' E 139°46'810.7
2017-Oct-12 10:44N 35°21' E 139°43'310.8
2017-Oct-12 10:26N 35°24' E 139°43'  
2017-Oct-08 11:05N 35°21' E 139°45'110.5
2017-Oct-08 10:57N 35°19' E 139°44'610.3
2017-Oct-08 10:22N 35°14' E 139°47'411.2
2017-Oct-08 09:59N 35°10' E 139°46'612.0
2017-Oct-08 09:29N 35°05' E 139°42'  
Track history (hours):
 
Tides and Currents Weather Stations Pressure Air Temp Water Temp Dewpoint Dewpoint Depression Visibility Wind Speed Wind Dir Waves Ship Positions

Kukimaru No.13

Last reported at 2017-Oct-12 12:19 UTC. Time now 2017-Oct-18 15:10 UTC.
Position N 35°07' E 139°40'.

Length 75 m.

Type: Cargo ship. MMSI: 431000251.

Date/timePositionNaut miles runAvg speedWind from/ knotsBaromVisibWave heightAir tempDewpointWater temp
2017-Oct-12 12:19N 35°07' E 139°40'3 9.8
2017-Oct-12 11:59N 35°09' E 139°43'510.3
2017-Oct-12 11:30N 35°13' E 139°46'810.7
2017-Oct-12 10:44N 35°21' E 139°43'310.8
2017-Oct-12 10:26N 35°24' E 139°43'  
2017-Oct-08 11:05N 35°21' E 139°45'110.5
2017-Oct-08 10:57N 35°19' E 139°44'610.3
2017-Oct-08 10:22N 35°14' E 139°47'411.2
2017-Oct-08 09:59N 35°10' E 139°46'612.0
2017-Oct-08 09:29N 35°05' E 139°42'  

Dump ship's entire track history